Valdez, AK

4:37 AM AKDT on July 23, 2016 (GMT -0800)
Valdez | | Change Station

Elev 121 ft 61.13 °N, 146.25 °W | Updated 1 minute ago

Mostly Cloudy
Mostly Cloudy
52 °F
Feels Like 52 °F
N
0
Wind Variable Wind from North

Today
High -- | Low -- °F
--% Chance of Precip.
Yesterday
High -- | Low -- °F
Precip. -- in
Pressure 29.52 in
Visibility 10.0 miles
Clouds Mostly Cloudy 8000 ft
Dew Point 46 °F
Humidity 82%
Rainfall 0.19 in
Snow Depth Not available.
4:57 AM 10:43 PM
Waning Gibbous, 85% visible
METAR PAVD 231236Z 00000KT 10SM BKN080 11/08 A2952 RMK AO1 P0003
Pressure 29.52 in
Visibility 10.0 miles
Clouds Mostly Cloudy 8000 ft
Dew Point 46 °F
Humidity 82%
Rainfall 0.19 in
Snow Depth Not available.
4:57 AM 10:43 PM
Waning Gibbous, 85% visible
METAR PAVD 231236Z 00000KT 10SM BKN080 11/08 A2952 RMK AO1 P0003

10-Day Weather Forecast

Almanac

Astronomy

Jul. 23, 2016 Rise Set
Actual Time
Civil Twilight
Nautical Twilight
Astronomical Twilight
Moon
Length of Visible Light
Length of Day
Tomorrow will be .
, % of the Moon is Illuminated

Today's Extremes

State Highs State Lows

Community

WunderPhotos

Upload Photos

1,926,815 photos uploaded!

WunderBlog® & News

Nearby

Air Quality

  Air Quality AQ Index Pollutant
Not available.

Snow Depth

Station Depth Elevation

Earthquake Activity

City Distance Mag. Time & Date
Minimum magnitude displayed is 2.5.

Coastal Water Temperatures

Place Temperature

Stations

Nearby Weather Stations

Station Location Temp. Windchill Dew Point Humidity Wind Precip. Elev Updated Type
                   

Watches & Warnings

There are currently no watches in effect.